Desmet, Idaho
Current Conditions -  °F | °C
As of 4:53 AM on Tuesday 21 Oct 2014 (Local Time) from KPUW Reporting Station
Overcast Overcast  
Wind Chill: 45°   Ceiling: 3300
Heat Index: 48°   Visibility: 10mi
Dew Point: 44°   Wind: 7mph
Humidity: 86%   Direction: 140°SE
Pressure: 29.88"   Gusts: NA
Location:  47.15°N, 116.92°W
Report Text: KPUW 211153Z AUTO 14006KT 10SM BKN033 BKN042 OVC050 09/07 A2988 RMK AO2 SLP113 60000 T00890067 10094 20089 58001
Loading
Personal Weather Stations






























Interactive Weather Map
Tropical Storm Tracking
New forecast layout! Learn more

10-Day Weather Forecast

Advertisements
Track Severe Weather on mobile